sensor_id;sensor_type;location;lat;lon;timestamp;pressure;altitude;pressure_sealevel;temperature;humidity
34177;BME280;20450;49.074;9.158;2024-02-28T00:02:13;99781.72;;;10.01;70.27
34177;BME280;20450;49.074;9.158;2024-02-28T00:04:40;99782.97;;;9.92;70.47
34177;BME280;20450;49.074;9.158;2024-02-28T00:07:08;99778.84;;;9.96;71.01
34177;BME280;20450;49.074;9.158;2024-02-28T00:09:36;99780.91;;;10.01;70.79
34177;BME280;20450;49.074;9.158;2024-02-28T00:12:05;99778.22;;;10.08;71.20
34177;BME280;20450;49.074;9.158;2024-02-28T00:14:32;99771.59;;;10.10;70.38
34177;BME280;20450;49.074;9.158;2024-02-28T00:16:59;99786.75;;;10.11;71.18
34177;BME280;20450;49.074;9.158;2024-02-28T00:19:26;99776.16;;;10.10;71.12
34177;BME280;20450;49.074;9.158;2024-02-28T00:21:53;99780.28;;;10.12;71.39
34177;BME280;20450;49.074;9.158;2024-02-28T00:24:20;99782.19;;;10.12;71.40
34177;BME280;20450;49.074;9.158;2024-02-28T00:26:47;99788.19;;;10.14;70.94
34177;BME280;20450;49.074;9.158;2024-02-28T00:29:15;99793.38;;;10.15;70.71
34177;BME280;20450;49.074;9.158;2024-02-28T00:31:42;99791.31;;;10.17;70.80
34177;BME280;20450;49.074;9.158;2024-02-28T00:34:09;99790.25;;;10.18;71.02
34177;BME280;20450;49.074;9.158;2024-02-28T00:36:36;99797.53;;;10.18;70.45
34177;BME280;20450;49.074;9.158;2024-02-28T00:39:20;99799.63;;;10.22;70.76
34177;BME280;20450;49.074;9.158;2024-02-28T00:41:48;99800.84;;;10.20;69.91
34177;BME280;20450;49.074;9.158;2024-02-28T00:44:16;99797.34;;;10.19;70.46
34177;BME280;20450;49.074;9.158;2024-02-28T00:46:43;99809.16;;;10.18;70.72
34177;BME280;20450;49.074;9.158;2024-02-28T00:49:10;99800.44;;;10.10;70.61
34177;BME280;20450;49.074;9.158;2024-02-28T00:51:37;99808.09;;;10.06;71.05
34177;BME280;20450;49.074;9.158;2024-02-28T00:54:04;99807.69;;;10.09;70.86
34177;BME280;20450;49.074;9.158;2024-02-28T00:56:31;99806.69;;;10.10;70.99
34177;BME280;20450;49.074;9.158;2024-02-28T00:58:58;99815.78;;;10.09;70.65
34177;BME280;20450;49.074;9.158;2024-02-28T01:01:26;99815.00;;;10.09;71.03
34177;BME280;20450;49.074;9.158;2024-02-28T01:03:53;99814.56;;;10.12;71.07
34177;BME280;20450;49.074;9.158;2024-02-28T01:06:20;99813.09;;;10.09;71.14
34177;BME280;20450;49.074;9.158;2024-02-28T01:08:47;99809.38;;;10.10;70.91
34177;BME280;20450;49.074;9.158;2024-02-28T01:11:15;99811.19;;;10.03;71.51
34177;BME280;20450;49.074;9.158;2024-02-28T01:13:42;99813.50;;;9.99;71.15
34177;BME280;20450;49.074;9.158;2024-02-28T01:16:09;99813.50;;;9.99;70.91
34177;BME280;20450;49.074;9.158;2024-02-28T01:18:37;99823.44;;;9.99;71.20
34177;BME280;20450;49.074;9.158;2024-02-28T01:21:04;99818.25;;;9.97;71.59
34177;BME280;20450;49.074;9.158;2024-02-28T01:23:31;99820.75;;;9.99;70.57
34177;BME280;20450;49.074;9.158;2024-02-28T01:25:58;99823.03;;;10.02;70.83
34177;BME280;20450;49.074;9.158;2024-02-28T01:28:25;99816.78;;;10.01;70.42
34177;BME280;20450;49.074;9.158;2024-02-28T01:30:52;99826.38;;;10.04;70.71
34177;BME280;20450;49.074;9.158;2024-02-28T01:33:19;99811.19;;;10.03;70.54
34177;BME280;20450;49.074;9.158;2024-02-28T01:35:47;99817.00;;;10.00;70.66
34177;BME280;20450;49.074;9.158;2024-02-28T01:38:14;99813.91;;;9.96;71.20
34177;BME280;20450;49.074;9.158;2024-02-28T01:40:44;99808.28;;;9.91;70.38
34177;BME280;20450;49.074;9.158;2024-02-28T01:43:11;99808.72;;;9.95;70.95
34177;BME280;20450;49.074;9.158;2024-02-28T01:45:39;99807.03;;;9.94;70.38
34177;BME280;20450;49.074;9.158;2024-02-28T01:48:06;99814.13;;;9.95;70.96
34177;BME280;20450;49.074;9.158;2024-02-28T01:50:36;99808.50;;;10.03;70.57
34177;BME280;20450;49.074;9.158;2024-02-28T01:53:06;99802.69;;;9.99;71.06
34177;BME280;20450;49.074;9.158;2024-02-28T01:55:35;99805.19;;;10.01;70.99
34177;BME280;20450;49.074;9.158;2024-02-28T01:58:03;99797.91;;;10.01;70.08
34177;BME280;20450;49.074;9.158;2024-02-28T02:00:32;99805.78;;;10.03;69.85
34177;BME280;20450;49.074;9.158;2024-02-28T02:03:00;99812.88;;;9.97;70.80
34177;BME280;20450;49.074;9.158;2024-02-28T02:05:28;99808.50;;;9.96;70.79
34177;BME280;20450;49.074;9.158;2024-02-28T02:07:56;99811.22;;;9.96;70.14
34177;BME280;20450;49.074;9.158;2024-02-28T02:10:26;99818.69;;;10.01;70.78
34177;BME280;20450;49.074;9.158;2024-02-28T02:12:53;99818.91;;;9.99;70.29
34177;BME280;20450;49.074;9.158;2024-02-28T02:15:20;99821.56;;;9.93;70.39
34177;BME280;20450;49.074;9.158;2024-02-28T02:17:47;99827.78;;;9.80;70.54
34177;BME280;20450;49.074;9.158;2024-02-28T02:20:14;99833.59;;;9.71;71.32
34177;BME280;20450;49.074;9.158;2024-02-28T02:22:43;99831.13;;;9.76;70.96
34177;BME280;20450;49.074;9.158;2024-02-28T02:25:10;99832.34;;;9.80;70.59
34177;BME280;20450;49.074;9.158;2024-02-28T02:27:37;99840.03;;;9.89;70.48
34177;BME280;20450;49.074;9.158;2024-02-28T02:30:05;99844.59;;;9.76;70.34
34177;BME280;20450;49.074;9.158;2024-02-28T02:32:32;99855.41;;;9.76;70.73
34177;BME280;20450;49.074;9.158;2024-02-28T02:34:59;99861.81;;;9.75;70.55
34177;BME280;20450;49.074;9.158;2024-02-28T02:37:26;99865.75;;;9.72;71.03
34177;BME280;20450;49.074;9.158;2024-02-28T02:39:54;99866.19;;;9.76;70.71
34177;BME280;20450;49.074;9.158;2024-02-28T02:42:21;99867.41;;;9.73;70.96
34177;BME280;20450;49.074;9.158;2024-02-28T02:44:48;99875.50;;;9.73;70.33
34177;BME280;20450;49.074;9.158;2024-02-28T02:47:15;99876.97;;;9.76;70.92
34177;BME280;20450;49.074;9.158;2024-02-28T02:49:42;99880.69;;;9.75;70.29
34177;BME280;20450;49.074;9.158;2024-02-28T02:52:09;99882.78;;;9.79;69.89
34177;BME280;20450;49.074;9.158;2024-02-28T02:54:36;99887.34;;;9.79;70.21
34177;BME280;20450;49.074;9.158;2024-02-28T02:57:04;99885.06;;;9.76;69.88
34177;BME280;20450;49.074;9.158;2024-02-28T02:59:31;99888.38;;;9.78;70.29
34177;BME280;20450;49.074;9.158;2024-02-28T03:01:58;99904.97;;;9.75;70.09
34177;BME280;20450;49.074;9.158;2024-02-28T03:04:25;99899.56;;;9.75;70.52
34177;BME280;20450;49.074;9.158;2024-02-28T03:06:52;99899.16;;;9.78;70.01
34177;BME280;20450;49.074;9.158;2024-02-28T03:09:19;99892.13;;;9.77;69.84
34177;BME280;20450;49.074;9.158;2024-02-28T03:11:46;99909.75;;;9.73;70.15
34177;BME280;20450;49.074;9.158;2024-02-28T03:14:14;99909.28;;;9.63;70.10
34177;BME280;20450;49.074;9.158;2024-02-28T03:16:41;99910.13;;;9.63;70.59
34177;BME280;20450;49.074;9.158;2024-02-28T03:19:09;99904.28;;;9.60;70.69
34177;BME280;20450;49.074;9.158;2024-02-28T03:21:36;99913.63;;;9.57;70.89
34177;BME280;20450;49.074;9.158;2024-02-28T03:24:04;99923.56;;;9.57;70.78
34177;BME280;20450;49.074;9.158;2024-02-28T03:26:31;99915.28;;;9.58;70.80
34177;BME280;20450;49.074;9.158;2024-02-28T03:28:58;99919.63;;;9.53;71.06
34177;BME280;20450;49.074;9.158;2024-02-28T03:31:27;99923.16;;;9.60;71.70
34177;BME280;20450;49.074;9.158;2024-02-28T03:33:53;99922.16;;;9.61;70.23
34177;BME280;20450;49.074;9.158;2024-02-28T03:36:21;99926.50;;;9.62;69.89
34177;BME280;20450;49.074;9.158;2024-02-28T03:38:48;99926.47;;;9.55;69.85
34177;BME280;20450;49.074;9.158;2024-02-28T03:41:15;99932.66;;;9.49;70.67
34177;BME280;20450;49.074;9.158;2024-02-28T03:43:41;99932.88;;;9.48;70.96
34177;BME280;20450;49.074;9.158;2024-02-28T03:46:08;99932.47;;;9.51;71.39
34177;BME280;20450;49.074;9.158;2024-02-28T03:48:37;99930.56;;;9.38;70.96
34177;BME280;20450;49.074;9.158;2024-02-28T03:51:04;99942.19;;;9.45;70.68
34177;BME280;20450;49.074;9.158;2024-02-28T03:53:31;99948.88;;;9.56;72.11
34177;BME280;20450;49.074;9.158;2024-02-28T03:55:58;99956.78;;;9.57;70.07
34177;BME280;20450;49.074;9.158;2024-02-28T03:58:25;99961.06;;;9.45;69.88
34177;BME280;20450;49.074;9.158;2024-02-28T04:00:51;99965.81;;;9.37;70.41
34177;BME280;20450;49.074;9.158;2024-02-28T04:03:19;99968.81;;;9.21;70.99
34177;BME280;20450;49.074;9.158;2024-02-28T04:05:47;99962.00;;;9.25;70.80
34177;BME280;20450;49.074;9.158;2024-02-28T04:08:14;99963.44;;;9.21;71.34
34177;BME280;20450;49.074;9.158;2024-02-28T04:10:41;99978.28;;;9.44;72.45
34177;BME280;20450;49.074;9.158;2024-02-28T04:13:08;99981.34;;;9.35;69.70
34177;BME280;20450;49.074;9.158;2024-02-28T04:15:35;99984.75;;;9.50;70.75
34177;BME280;20450;49.074;9.158;2024-02-28T04:18:02;99988.09;;;9.24;70.36
34177;BME280;20450;49.074;9.158;2024-02-28T04:20:29;99982.97;;;9.02;71.77
34177;BME280;20450;49.074;9.158;2024-02-28T04:22:57;99984.28;;;9.06;71.41
34177;BME280;20450;49.074;9.158;2024-02-28T04:25:24;99991.06;;;9.02;72.99
34177;BME280;20450;49.074;9.158;2024-02-28T04:27:51;99995.66;;;9.08;74.45
34177;BME280;20450;49.074;9.158;2024-02-28T04:30:18;99987.31;;;9.24;74.76
34177;BME280;20450;49.074;9.158;2024-02-28T04:32:45;99987.19;;;9.45;72.19
34177;BME280;20450;49.074;9.158;2024-02-28T04:35:12;99994.56;;;9.64;70.84
34177;BME280;20450;49.074;9.158;2024-02-28T04:37:39;99990.22;;;10.10;72.06
34177;BME280;20450;49.074;9.158;2024-02-28T04:40:09;99992.31;;;10.34;69.02
34177;BME280;20450;49.074;9.158;2024-02-28T04:42:37;99993.38;;;10.33;68.28
34177;BME280;20450;49.074;9.158;2024-02-28T04:45:05;100002.31;;;10.34;67.91
34177;BME280;20450;49.074;9.158;2024-02-28T04:47:32;99997.13;;;10.39;68.51
34177;BME280;20450;49.074;9.158;2024-02-28T04:50:10;99998.19;;;10.44;67.85
34177;BME280;20450;49.074;9.158;2024-02-28T04:52:37;100001.50;;;10.40;66.41
34177;BME280;20450;49.074;9.158;2024-02-28T04:55:05;100012.47;;;10.25;68.06
34177;BME280;20450;49.074;9.158;2024-02-28T04:57:33;100014.50;;;10.10;67.56
34177;BME280;20450;49.074;9.158;2024-02-28T05:00:00;100013.81;;;9.95;67.81
34177;BME280;20450;49.074;9.158;2024-02-28T05:02:28;100019.13;;;9.82;69.51
34177;BME280;20450;49.074;9.158;2024-02-28T05:04:54;100027.41;;;9.74;68.78
34177;BME280;20450;49.074;9.158;2024-02-28T05:07:21;100026.09;;;9.63;68.38
34177;BME280;20450;49.074;9.158;2024-02-28T05:09:48;100030.56;;;9.50;69.06
34177;BME280;20450;49.074;9.158;2024-02-28T05:12:15;100024.63;;;9.27;70.08
34177;BME280;20450;49.074;9.158;2024-02-28T05:14:44;100025.44;;;9.21;70.49
34177;BME280;20450;49.074;9.158;2024-02-28T05:17:11;100023.72;;;9.13;71.16
34177;BME280;20450;49.074;9.158;2024-02-28T05:19:38;100025.97;;;9.10;71.02
34177;BME280;20450;49.074;9.158;2024-02-28T05:22:06;100026.09;;;9.02;71.13
34177;BME280;20450;49.074;9.158;2024-02-28T05:24:33;100025.59;;;8.92;72.05
34177;BME280;20450;49.074;9.158;2024-02-28T05:27:00;100028.09;;;8.93;71.74
34177;BME280;20450;49.074;9.158;2024-02-28T05:29:26;100023.56;;;8.94;72.33
34177;BME280;20450;49.074;9.158;2024-02-28T05:31:55;100027.25;;;8.93;72.11
34177;BME280;20450;49.074;9.158;2024-02-28T05:34:22;100026.28;;;9.00;77.55
34177;BME280;20450;49.074;9.158;2024-02-28T05:36:49;100031.25;;;8.97;75.71
34177;BME280;20450;49.074;9.158;2024-02-28T05:39:16;100024.44;;;9.01;74.49
34177;BME280;20450;49.074;9.158;2024-02-28T05:41:43;100041.06;;;9.04;76.17
34177;BME280;20450;49.074;9.158;2024-02-28T05:44:10;100043.38;;;9.14;75.17
34177;BME280;20450;49.074;9.158;2024-02-28T05:46:37;100043.97;;;9.09;75.17
34177;BME280;20450;49.074;9.158;2024-02-28T05:49:05;100041.25;;;9.03;74.90
34177;BME280;20450;49.074;9.158;2024-02-28T05:51:32;100033.69;;;8.92;74.92
34177;BME280;20450;49.074;9.158;2024-02-28T05:53:59;100043.19;;;8.88;74.47
34177;BME280;20450;49.074;9.158;2024-02-28T05:56:26;100046.19;;;8.99;76.69
34177;BME280;20450;49.074;9.158;2024-02-28T05:58:53;100041.25;;;9.03;78.26
34177;BME280;20450;49.074;9.158;2024-02-28T06:01:20;100035.44;;;9.33;74.58
34177;BME280;20450;49.074;9.158;2024-02-28T06:03:47;100036.72;;;9.37;74.56
34177;BME280;20450;49.074;9.158;2024-02-28T06:06:16;100041.63;;;9.27;72.92
34177;BME280;20450;49.074;9.158;2024-02-28T06:08:44;100036.16;;;9.14;72.21
34177;BME280;20450;49.074;9.158;2024-02-28T06:11:11;100033.69;;;9.87;75.37
34177;BME280;20450;49.074;9.158;2024-02-28T06:13:40;100037.78;;;10.24;70.59
34177;BME280;20450;49.074;9.158;2024-02-28T06:16:07;100045.09;;;10.43;72.12
34177;BME280;20450;49.074;9.158;2024-02-28T06:18:39;100042.25;;;10.64;70.21
34177;BME280;20450;49.074;9.158;2024-02-28T06:21:07;100046.59;;;10.52;68.15
34177;BME280;20450;49.074;9.158;2024-02-28T06:23:35;100057.00;;;10.49;68.28
34177;BME280;20450;49.074;9.158;2024-02-28T06:26:03;100059.19;;;10.26;69.27
34177;BME280;20450;49.074;9.158;2024-02-28T06:28:30;100073.78;;;10.38;71.30
34177;BME280;20450;49.074;9.158;2024-02-28T06:30:57;100075.81;;;10.29;68.08
34177;BME280;20450;49.074;9.158;2024-02-28T06:33:24;100080.78;;;10.19;67.61
34177;BME280;20450;49.074;9.158;2024-02-28T06:35:51;100086.06;;;9.99;67.88
34177;BME280;20450;49.074;9.158;2024-02-28T06:38:18;100086.75;;;9.74;68.58
34177;BME280;20450;49.074;9.158;2024-02-28T06:40:46;100089.13;;;9.56;69.69
34177;BME280;20450;49.074;9.158;2024-02-28T06:43:13;100090.00;;;9.35;70.03
34177;BME280;20450;49.074;9.158;2024-02-28T06:45:41;100086.63;;;9.27;70.66
34177;BME280;20450;49.074;9.158;2024-02-28T06:48:11;100098.31;;;9.13;71.43
34177;BME280;20450;49.074;9.158;2024-02-28T06:50:39;100100.56;;;9.09;71.41
34177;BME280;20450;49.074;9.158;2024-02-28T06:53:05;100102.75;;;8.99;72.07
34177;BME280;20450;49.074;9.158;2024-02-28T06:55:32;100105.91;;;9.03;72.33
34177;BME280;20450;49.074;9.158;2024-02-28T06:58:01;100115.06;;;9.08;74.36
34177;BME280;20450;49.074;9.158;2024-02-28T07:00:27;100112.84;;;9.12;75.11
34177;BME280;20450;49.074;9.158;2024-02-28T07:02:55;100117.44;;;9.18;74.48
34177;BME280;20450;49.074;9.158;2024-02-28T07:05:22;100114.38;;;9.21;74.23
34177;BME280;20450;49.074;9.158;2024-02-28T07:07:49;100120.19;;;9.24;74.24
34177;BME280;20450;49.074;9.158;2024-02-28T07:10:16;100129.75;;;9.27;74.34
34177;BME280;20450;49.074;9.158;2024-02-28T07:12:43;100127.09;;;9.33;75.31
34177;BME280;20450;49.074;9.158;2024-02-28T07:15:11;100134.59;;;9.38;74.53
34177;BME280;20450;49.074;9.158;2024-02-28T07:17:38;100131.13;;;9.44;74.78
34177;BME280;20450;49.074;9.158;2024-02-28T07:20:06;100132.19;;;9.43;72.83
34177;BME280;20450;49.074;9.158;2024-02-28T07:22:33;100134.69;;;9.44;71.99
34177;BME280;20450;49.074;9.158;2024-02-28T07:25:01;100130.94;;;9.45;72.51
34177;BME280;20450;49.074;9.158;2024-02-28T07:27:28;100141.91;;;9.44;72.70
34177;BME280;20450;49.074;9.158;2024-02-28T07:29:55;100148.78;;;9.46;73.93
34177;BME280;20450;49.074;9.158;2024-02-28T07:32:23;100151.28;;;9.48;75.23
34177;BME280;20450;49.074;9.158;2024-02-28T07:34:50;100154.81;;;9.48;73.72
34177;BME280;20450;49.074;9.158;2024-02-28T07:37:17;100165.78;;;9.47;74.59
34177;BME280;20450;49.074;9.158;2024-02-28T07:39:44;100167.03;;;9.44;73.26
34177;BME280;20450;49.074;9.158;2024-02-28T07:42:11;100171.19;;;9.47;73.87
34177;BME280;20450;49.074;9.158;2024-02-28T07:44:38;100174.16;;;9.52;74.85
34177;BME280;20450;49.074;9.158;2024-02-28T07:47:06;100176.84;;;9.52;73.60
34177;BME280;20450;49.074;9.158;2024-02-28T07:49:34;100177.47;;;9.54;72.43
34177;BME280;20450;49.074;9.158;2024-02-28T07:52:01;100191.66;;;9.62;74.42
34177;BME280;20450;49.074;9.158;2024-02-28T07:54:28;100181.28;;;9.66;72.54
34177;BME280;20450;49.074;9.158;2024-02-28T07:56:55;100186.94;;;9.71;72.07
34177;BME280;20450;49.074;9.158;2024-02-28T07:59:22;100197.34;;;9.74;73.21
34177;BME280;20450;49.074;9.158;2024-02-28T08:01:49;100190.63;;;9.63;71.90
34177;BME280;20450;49.074;9.158;2024-02-28T08:04:16;100193.13;;;9.65;72.33
34177;BME280;20450;49.074;9.158;2024-02-28T08:06:45;100195.22;;;9.69;72.02
34177;BME280;20450;49.074;9.158;2024-02-28T08:09:12;100203.59;;;9.74;72.05
34177;BME280;20450;49.074;9.158;2024-02-28T08:11:39;100203.63;;;9.81;72.83
34177;BME280;20450;49.074;9.158;2024-02-28T08:14:07;100209.66;;;9.83;71.64
34177;BME280;20450;49.074;9.158;2024-02-28T08:16:34;100205.44;;;9.74;71.46
34177;BME280;20450;49.074;9.158;2024-02-28T08:19:00;100210.66;;;9.82;70.88
34177;BME280;20450;49.074;9.158;2024-02-28T08:21:28;100207.38;;;9.86;73.18
34177;BME280;20450;49.074;9.158;2024-02-28T08:23:56;100215.53;;;9.93;71.90
34177;BME280;20450;49.074;9.158;2024-02-28T08:26:23;100211.81;;;9.94;71.90
34177;BME280;20450;49.074;9.158;2024-02-28T08:28:50;100214.09;;;9.97;71.46
34177;BME280;20450;49.074;9.158;2024-02-28T08:31:17;100207.69;;;9.98;71.19
34177;BME280;20450;49.074;9.158;2024-02-28T08:33:44;100218.91;;;10.01;70.36
34177;BME280;20450;49.074;9.158;2024-02-28T08:36:11;100215.81;;;10.04;69.82
34177;BME280;20450;49.074;9.158;2024-02-28T08:38:38;100213.50;;;10.01;69.40
34177;BME280;20450;49.074;9.158;2024-02-28T08:41:07;100216.66;;;10.05;69.72
34177;BME280;20450;49.074;9.158;2024-02-28T08:43:37;100210.63;;;10.03;69.68
34177;BME280;20450;49.074;9.158;2024-02-28T08:46:05;100217.66;;;9.97;69.86
34177;BME280;20450;49.074;9.158;2024-02-28T08:48:32;100215.25;;;10.09;69.65
34177;BME280;20450;49.074;9.158;2024-02-28T08:50:59;100220.50;;;10.17;70.10
34177;BME280;20450;49.074;9.158;2024-02-28T08:53:26;100217.81;;;10.17;69.88
34177;BME280;20450;49.074;9.158;2024-02-28T08:55:53;100226.78;;;10.24;70.43
34177;BME280;20450;49.074;9.158;2024-02-28T08:58:21;100225.78;;;10.25;70.35
34177;BME280;20450;49.074;9.158;2024-02-28T09:00:48;100231.59;;;10.29;71.15
34177;BME280;20450;49.074;9.158;2024-02-28T09:03:16;100232.03;;;10.32;71.19
34177;BME280;20450;49.074;9.158;2024-02-28T09:05:43;100226.44;;;10.34;71.82
34177;BME280;20450;49.074;9.158;2024-02-28T09:08:10;100224.84;;;10.52;77.66
34177;BME280;20450;49.074;9.158;2024-02-28T09:10:40;100225.84;;;10.85;78.23
34177;BME280;20450;49.074;9.158;2024-02-28T09:13:07;100228.81;;;11.03;75.12
34177;BME280;20450;49.074;9.158;2024-02-28T09:15:36;100226.94;;;11.04;70.79
34177;BME280;20450;49.074;9.158;2024-02-28T09:18:04;100225.66;;;11.00;67.26
34177;BME280;20450;49.074;9.158;2024-02-28T09:20:31;100222.34;;;10.98;67.05
34177;BME280;20450;49.074;9.158;2024-02-28T09:22:58;100224.19;;;10.91;66.75
34177;BME280;20450;49.074;9.158;2024-02-28T09:25:25;100225.84;;;10.85;66.53
34177;BME280;20450;49.074;9.158;2024-02-28T09:27:54;100219.38;;;10.86;66.82
34177;BME280;20450;49.074;9.158;2024-02-28T09:30:22;100216.47;;;10.81;66.27
34177;BME280;20450;49.074;9.158;2024-02-28T09:32:51;100220.00;;;10.82;66.61
34177;BME280;20450;49.074;9.158;2024-02-28T09:35:19;100225.84;;;10.85;66.46
34177;BME280;20450;49.074;9.158;2024-02-28T09:37:46;100217.94;;;10.84;66.15
34177;BME280;20450;49.074;9.158;2024-02-28T09:40:13;100219.94;;;10.69;65.56
34177;BME280;20450;49.074;9.158;2024-02-28T09:42:40;100215.44;;;10.35;65.93
34177;BME280;20450;49.074;9.158;2024-02-28T09:45:09;100218.50;;;9.98;68.05
34177;BME280;20450;49.074;9.158;2024-02-28T09:47:39;100227.03;;;9.74;69.47
34177;BME280;20450;49.074;9.158;2024-02-28T09:50:08;100231.97;;;9.49;70.82
34177;BME280;20450;49.074;9.158;2024-02-28T09:52:35;100235.75;;;9.76;70.14
34177;BME280;20450;49.074;9.158;2024-02-28T09:55:03;100234.03;;;9.96;69.25
34177;BME280;20450;49.074;9.158;2024-02-28T09:57:31;100240.59;;;10.08;68.79
34177;BME280;20450;49.074;9.158;2024-02-28T10:00:01;100245.66;;;10.18;68.79
34177;BME280;20450;49.074;9.158;2024-02-28T10:02:32;100244.88;;;10.24;67.66
34177;BME280;20450;49.074;9.158;2024-02-28T10:05:00;100253.00;;;10.30;67.99
34177;BME280;20450;49.074;9.158;2024-02-28T10:07:29;100252.00;;;10.38;66.67
34177;BME280;20450;49.074;9.158;2024-02-28T10:09:56;100255.16;;;10.41;66.33
34177;BME280;20450;49.074;9.158;2024-02-28T10:12:24;100245.34;;;10.34;65.36
34177;BME280;20450;49.074;9.158;2024-02-28T10:14:52;100239.16;;;10.46;66.42
34177;BME280;20450;49.074;9.158;2024-02-28T10:17:19;100246.88;;;10.15;65.95
34177;BME280;20450;49.074;9.158;2024-02-28T10:19:46;100255.16;;;9.65;67.95
34177;BME280;20450;49.074;9.158;2024-02-28T10:22:14;100249.88;;;9.78;68.20
34177;BME280;20450;49.074;9.158;2024-02-28T10:24:44;100254.28;;;10.07;67.92
34177;BME280;20450;49.074;9.158;2024-02-28T10:27:15;100260.91;;;10.32;67.30
34177;BME280;20450;49.074;9.158;2024-02-28T10:29:44;100263.44;;;10.40;66.79
34177;BME280;20450;49.074;9.158;2024-02-28T10:32:11;100267.25;;;10.52;66.11
34177;BME280;20450;49.074;9.158;2024-02-28T10:34:40;100267.06;;;10.60;66.07
34177;BME280;20450;49.074;9.158;2024-02-28T10:37:09;100279.00;;;10.72;65.81
34177;BME280;20450;49.074;9.158;2024-02-28T10:39:39;100280.03;;;10.77;65.19
34177;BME280;20450;49.074;9.158;2024-02-28T10:42:14;100285.06;;;10.80;64.52
34177;BME280;20450;49.074;9.158;2024-02-28T10:44:42;100294.66;;;10.83;63.53
34177;BME280;20450;49.074;9.158;2024-02-28T10:47:12;100284.66;;;10.83;63.95
34177;BME280;20450;49.074;9.158;2024-02-28T10:49:42;100290.09;;;10.90;64.04
34177;BME280;20450;49.074;9.158;2024-02-28T10:52:10;100298.84;;;10.92;63.76
34177;BME280;20450;49.074;9.158;2024-02-28T10:54:39;100306.16;;;10.98;64.59
34177;BME280;20450;49.074;9.158;2024-02-28T10:57:07;100303.25;;;10.99;63.58
34177;BME280;20450;49.074;9.158;2024-02-28T10:59:37;100300.16;;;11.02;63.98
34177;BME280;20450;49.074;9.158;2024-02-28T11:02:04;100303.06;;;11.07;63.52
34177;BME280;20450;49.074;9.158;2024-02-28T11:04:31;100306.81;;;11.06;63.50
34177;BME280;20450;49.074;9.158;2024-02-28T11:06:58;100317.63;;;11.06;62.79
34177;BME280;20450;49.074;9.158;2024-02-28T11:09:29;100314.81;;;10.87;63.02
34177;BME280;20450;49.074;9.158;2024-02-28T11:11:57;100316.63;;;10.73;64.16
34177;BME280;20450;49.074;9.158;2024-02-28T11:14:24;100330.38;;;10.78;63.46
34177;BME280;20450;49.074;9.158;2024-02-28T11:17:01;100318.16;;;10.89;63.78
34177;BME280;20450;49.074;9.158;2024-02-28T11:19:29;100315.69;;;10.94;63.85
34177;BME280;20450;49.074;9.158;2024-02-28T11:21:57;100315.28;;;10.97;63.08
34177;BME280;20450;49.074;9.158;2024-02-28T11:24:29;100313.63;;;10.96;63.40
34177;BME280;20450;49.074;9.158;2024-02-28T11:26:57;100307.78;;;10.92;64.03
34177;BME280;20450;49.074;9.158;2024-02-28T11:29:25;100302.66;;;11.04;63.37
34177;BME280;20450;49.074;9.158;2024-02-28T11:31:54;100304.94;;;11.07;63.45
34177;BME280;20450;49.074;9.158;2024-02-28T11:34:22;100302.25;;;11.07;63.56
34177;BME280;20450;49.074;9.158;2024-02-28T11:36:50;100300.22;;;10.75;62.98
34177;BME280;20450;49.074;9.158;2024-02-28T11:39:18;100297.59;;;10.94;62.80
34177;BME280;20450;49.074;9.158;2024-02-28T11:41:45;100286.44;;;11.10;62.77
34177;BME280;20450;49.074;9.158;2024-02-28T11:44:13;100295.88;;;11.27;63.10
34177;BME280;20450;49.074;9.158;2024-02-28T11:46:43;100304.16;;;11.19;61.82
34177;BME280;20450;49.074;9.158;2024-02-28T11:49:11;100303.56;;;11.37;61.40
34177;BME280;20450;49.074;9.158;2024-02-28T11:51:41;100296.31;;;11.37;61.18
34177;BME280;20450;49.074;9.158;2024-02-28T11:54:09;100301.94;;;11.42;60.77
34177;BME280;20450;49.074;9.158;2024-02-28T11:56:37;100300.38;;;11.14;61.47
34177;BME280;20450;49.074;9.158;2024-02-28T11:59:04;100302.69;;;11.23;61.22
34177;BME280;20450;49.074;9.158;2024-02-28T12:01:34;100308.63;;;11.53;60.77
34177;BME280;20450;49.074;9.158;2024-02-28T12:04:02;100307.22;;;11.70;60.82
34177;BME280;20450;49.074;9.158;2024-02-28T12:06:30;100302.88;;;11.82;59.87
34177;BME280;20450;49.074;9.158;2024-02-28T12:08:58;100314.97;;;11.99;59.16
34177;BME280;20450;49.074;9.158;2024-02-28T12:11:26;100314.75;;;12.14;59.06
34177;BME280;20450;49.074;9.158;2024-02-28T12:13:53;100309.75;;;12.04;58.42
34177;BME280;20450;49.074;9.158;2024-02-28T12:16:23;100311.22;;;12.07;58.22
34177;BME280;20450;49.074;9.158;2024-02-28T12:18:51;100310.19;;;11.95;57.72
34177;BME280;20450;49.074;9.158;2024-02-28T12:21:18;100301.63;;;12.11;57.86
34177;BME280;20450;49.074;9.158;2024-02-28T12:23:46;100297.66;;;12.26;57.62
34177;BME280;20450;49.074;9.158;2024-02-28T12:26:16;100302.44;;;12.37;56.56
34177;BME280;20450;49.074;9.158;2024-02-28T12:28:44;100306.81;;;12.45;56.46
34177;BME280;20450;49.074;9.158;2024-02-28T12:31:11;100302.44;;;12.44;55.90
34177;BME280;20450;49.074;9.158;2024-02-28T12:33:39;100293.66;;;12.61;56.26
34177;BME280;20450;49.074;9.158;2024-02-28T12:36:06;100294.63;;;12.80;55.34
34177;BME280;20450;49.074;9.158;2024-02-28T12:38:33;100297.28;;;13.06;55.00
34177;BME280;20450;49.074;9.158;2024-02-28T12:41:01;100290.22;;;12.92;54.09
34177;BME280;20450;49.074;9.158;2024-02-28T12:43:30;100286.19;;;12.37;54.53
34177;BME280;20450;49.074;9.158;2024-02-28T12:45:57;100273.06;;;12.28;55.56
34177;BME280;20450;49.074;9.158;2024-02-28T12:48:24;100277.13;;;12.76;55.03
34177;BME280;20450;49.074;9.158;2024-02-28T12:50:51;100276.03;;;13.03;54.42
34177;BME280;20450;49.074;9.158;2024-02-28T12:53:18;100288.00;;;13.26;53.63
34177;BME280;20450;49.074;9.158;2024-02-28T12:55:45;100292.06;;;13.48;52.21
34177;BME280;20450;49.074;9.158;2024-02-28T12:58:12;100276.38;;;13.19;53.55
34177;BME280;20450;49.074;9.158;2024-02-28T13:00:40;100260.78;;;13.39;54.02
34177;BME280;20450;49.074;9.158;2024-02-28T13:03:08;100261.19;;;12.42;54.83